JAF9MA EHEH-LEAL
Flight info
| Callsign | JAF9MA |
|---|---|
| Flight time | 2h 20m |
| Altitude | 37000 |
| Route | WOODY N872 MEDIL DCT KOVIN DCT DUCRA UM728 RESMI UN857 DISAK DCT DIRMO DCT GUERE DCT EVPOK DCT AGN DCT ANETO DCT POSSY DCT XIMPE DCT RIMES N860 VLC |
| Aircraft | B738/M-SDE2E3FGHIRWXY/LB1 |
Departure
| Time | 2026-05-01 13:12 |
|---|---|
| Airport | Eindhoven Airport (EHEH) |
Arrival
| Time | 2026-05-01 15:32 |
|---|---|
| Airport | Alicante-Elche Miguel Hernández Airport (LEAL) |
| Time | Latitude | Longitude | Altitude | Speed | Heading |
|---|---|---|---|---|---|
| 2026-05-01 12:39 | 51.45856 | 5.39056 | 63 ft | 0 kts | 125° |
| 2026-05-01 12:54 | 51.45881 | 5.39006 | 63 ft | 4 kts | 139° |
| 2026-05-01 12:54 | 51.45903 | 5.38982 | 63 ft | 4 kts | 163° |
| 2026-05-01 12:55 | 51.45926 | 5.38982 | 68 ft | 1 kts | 214° |
| 2026-05-01 12:58 | 51.45925 | 5.38982 | 68 ft | 1 kts | 214° |
| 2026-05-01 12:58 | 51.45912 | 5.38968 | 63 ft | 4 kts | 212° |
| 2026-05-01 12:58 | 51.45875 | 5.38929 | 68 ft | 8 kts | 214° |
| 2026-05-01 12:59 | 51.45792 | 5.38816 | 71 ft | 8 kts | 256° |
| 2026-05-01 12:59 | 51.45807 | 5.38747 | 71 ft | 6 kts | 302° |
| 2026-05-01 12:59 | 51.45854 | 5.38636 | 72 ft | 6 kts | 307° |
| 2026-05-01 13:00 | 51.45914 | 5.38500 | 76 ft | 9 kts | 304° |
| 2026-05-01 13:00 | 51.45959 | 5.38398 | 71 ft | 13 kts | 307° |
| 2026-05-01 13:01 | 51.45958 | 5.38232 | 70 ft | 8 kts | 216° |
| 2026-05-01 13:01 | 51.45913 | 5.38181 | 74 ft | 9 kts | 215° |
| 2026-05-01 13:01 | 51.45767 | 5.38017 | 69 ft | 18 kts | 215° |
| 2026-05-01 13:02 | 51.45653 | 5.37891 | 71 ft | 22 kts | 214° |
| 2026-05-01 13:07 | 51.43973 | 5.36100 | 73 ft | 0 kts | 125° |
| 2026-05-01 13:09 | 51.43968 | 5.36113 | 73 ft | 3 kts | 121° |
| 2026-05-01 13:10 | 51.43950 | 5.36162 | 66 ft | 8 kts | 120° |
| 2026-05-01 13:10 | 51.43952 | 5.36255 | 73 ft | 7 kts | 53° |
| 2026-05-01 13:10 | 51.43961 | 5.36270 | 68 ft | 2 kts | 42° |
| 2026-05-01 13:10 | 51.43962 | 5.36270 | 69 ft | 0 kts | 42° |
| 2026-05-01 13:11 | 51.43962 | 5.36271 | 69 ft | 1 kts | 41° |
| 2026-05-01 13:11 | 51.44078 | 5.36405 | 66 ft | 55 kts | 35° |
| 2026-05-01 13:12 | 51.44597 | 5.36987 | 75 ft | 124 kts | 34° |
| 2026-05-01 13:12 | 51.45432 | 5.37979 | 255 ft | 163 kts | 40° |
| 2026-05-01 13:12 | 51.46412 | 5.39100 | 791 ft | 179 kts | 38° |
| 2026-05-01 13:12 | 51.47461 | 5.40241 | 1537 ft | 189 kts | 38° |
| 2026-05-01 13:13 | 51.48625 | 5.41532 | 1956 ft | 219 kts | 39° |
| 2026-05-01 13:13 | 51.49924 | 5.43007 | 2428 ft | 234 kts | 38° |
| 2026-05-01 13:13 | 51.51345 | 5.44252 | 3304 ft | 240 kts | 16° |
| 2026-05-01 13:13 | 51.53032 | 5.44160 | 3987 ft | 249 kts | 338° |
| 2026-05-01 13:14 | 51.54435 | 5.42626 | 4900 ft | 245 kts | 305° |
| 2026-05-01 13:14 | 51.55147 | 5.40191 | 5609 ft | 243 kts | 272° |
| 2026-05-01 13:14 | 51.54982 | 5.37561 | 6193 ft | 237 kts | 248° |
| 2026-05-01 13:14 | 51.54387 | 5.35053 | 6537 ft | 245 kts | 242° |
| 2026-05-01 13:15 | 51.53711 | 5.32547 | 7398 ft | 242 kts | 242° |
| 2026-05-01 13:15 | 51.53045 | 5.30054 | 8184 ft | 244 kts | 243° |
| 2026-05-01 13:15 | 51.52386 | 5.27536 | 9049 ft | 244 kts | 243° |
| 2026-05-01 13:15 | 51.51837 | 5.24907 | 9566 ft | 264 kts | 252° |
| 2026-05-01 13:16 | 51.51435 | 5.21840 | 9946 ft | 286 kts | 255° |
| 2026-05-01 13:16 | 51.51075 | 5.18671 | 10595 ft | 296 kts | 256° |
| 2026-05-01 13:16 | 51.50688 | 5.15300 | 10798 ft | 321 kts | 256° |
| 2026-05-01 13:17 | 51.49323 | 5.03969 | 12233 ft | 357 kts | 255° |
| 2026-05-01 13:17 | 51.48830 | 4.99998 | 12951 ft | 362 kts | 255° |
| 2026-05-01 13:18 | 51.47833 | 4.92117 | 14293 ft | 372 kts | 255° |
| 2026-05-01 13:18 | 51.47310 | 4.88018 | 14963 ft | 375 kts | 255° |
| 2026-05-01 13:18 | 51.46782 | 4.83906 | 15654 ft | 378 kts | 255° |
| 2026-05-01 13:18 | 51.46249 | 4.79760 | 16308 ft | 381 kts | 255° |
| 2026-05-01 13:19 | 51.45711 | 4.75592 | 17088 ft | 381 kts | 255° |
| 2026-05-01 13:19 | 51.45175 | 4.71455 | 17765 ft | 384 kts | 255° |
| 2026-05-01 13:19 | 51.44068 | 4.62955 | 18908 ft | 393 kts | 255° |
| 2026-05-01 13:20 | 51.43507 | 4.58657 | 19466 ft | 396 kts | 255° |
| 2026-05-01 13:20 | 51.42937 | 4.54304 | 20029 ft | 399 kts | 255° |
| 2026-05-01 13:20 | 51.42356 | 4.49878 | 20582 ft | 403 kts | 255° |
| 2026-05-01 13:21 | 51.41109 | 4.41078 | 21617 ft | 407 kts | 247° |
| 2026-05-01 13:21 | 51.39672 | 4.37208 | 22091 ft | 405 kts | 226° |
| 2026-05-01 13:21 | 51.37610 | 4.34323 | 22622 ft | 403 kts | 210° |
| 2026-05-01 13:21 | 51.35108 | 4.32325 | 23126 ft | 404 kts | 202° |
| 2026-05-01 13:22 | 51.32519 | 4.30484 | 23581 ft | 408 kts | 202° |
| 2026-05-01 13:22 | 51.29917 | 4.28608 | 24003 ft | 412 kts | 203° |
| 2026-05-01 13:22 | 51.27320 | 4.26657 | 24412 ft | 414 kts | 204° |
| 2026-05-01 13:22 | 51.24710 | 4.24659 | 24824 ft | 416 kts | 204° |
| 2026-05-01 13:23 | 51.22096 | 4.22655 | 25211 ft | 418 kts | 204° |
| 2026-05-01 13:23 | 51.19462 | 4.20649 | 25595 ft | 420 kts | 204° |
| 2026-05-01 13:23 | 51.16806 | 4.18641 | 25963 ft | 423 kts | 203° |
| 2026-05-01 13:23 | 51.14092 | 4.16899 | 26323 ft | 424 kts | 198° |
| 2026-05-01 13:24 | 51.11344 | 4.15399 | 26695 ft | 426 kts | 197° |
| 2026-05-01 13:24 | 51.08529 | 4.13926 | 27050 ft | 428 kts | 197° |
| 2026-05-01 13:24 | 51.05695 | 4.12440 | 27389 ft | 430 kts | 197° |
| 2026-05-01 13:25 | 50.99989 | 4.09382 | 28058 ft | 435 kts | 198° |
| 2026-05-01 13:25 | 50.97119 | 4.07820 | 28393 ft | 437 kts | 198° |
| 2026-05-01 13:25 | 50.94240 | 4.06249 | 28712 ft | 439 kts | 198° |
| 2026-05-01 13:25 | 50.91349 | 4.04677 | 29025 ft | 441 kts | 198° |
| 2026-05-01 13:26 | 50.88434 | 4.03095 | 29328 ft | 443 kts | 198° |
| 2026-05-01 13:26 | 50.85547 | 4.01415 | 29629 ft | 445 kts | 200° |
| 2026-05-01 13:26 | 50.82670 | 3.99585 | 29926 ft | 447 kts | 201° |
| 2026-05-01 13:26 | 50.79791 | 3.97695 | 30205 ft | 449 kts | 201° |
| 2026-05-01 13:27 | 50.76898 | 3.95793 | 30476 ft | 450 kts | 201° |
| 2026-05-01 13:27 | 50.74002 | 3.93907 | 30837 ft | 449 kts | 201° |
| 2026-05-01 13:27 | 50.68252 | 3.90212 | 31636 ft | 445 kts | 201° |
| 2026-05-01 13:28 | 50.62512 | 3.86554 | 32291 ft | 444 kts | 201° |
| 2026-05-01 13:28 | 50.59649 | 3.84734 | 32651 ft | 442 kts | 201° |
| 2026-05-01 13:29 | 50.54020 | 3.81068 | 33424 ft | 439 kts | 202° |
| 2026-05-01 13:29 | 50.48429 | 3.77215 | 34022 ft | 438 kts | 202° |
| 2026-05-01 13:30 | 50.38221 | 3.70231 | 35010 ft | 436 kts | 202° |
| 2026-05-01 13:31 | 50.32687 | 3.66480 | 35725 ft | 430 kts | 202° |
| 2026-05-01 13:31 | 50.23534 | 3.60308 | 36350 ft | 432 kts | 202° |
| 2026-05-01 13:32 | 50.18905 | 3.57190 | 36782 ft | 430 kts | 202° |
| 2026-05-01 13:33 | 50.10679 | 3.51664 | 37215 ft | 434 kts | 201° |
| 2026-05-01 13:33 | 50.05113 | 3.47936 | 37222 ft | 432 kts | 201° |
| 2026-05-01 13:34 | 49.94140 | 3.40614 | 37216 ft | 426 kts | 201° |
| 2026-05-01 13:35 | 49.85987 | 3.35198 | 37219 ft | 424 kts | 201° |
| 2026-05-01 13:36 | 49.77846 | 3.29809 | 37219 ft | 425 kts | 201° |
| 2026-05-01 13:36 | 49.69674 | 3.24419 | 37218 ft | 427 kts | 201° |
| 2026-05-01 13:37 | 49.64234 | 3.20842 | 37213 ft | 429 kts | 201° |
| 2026-05-01 13:37 | 49.58722 | 3.17224 | 37212 ft | 430 kts | 201° |
| 2026-05-01 13:38 | 49.50432 | 3.11801 | 37215 ft | 432 kts | 201° |
| 2026-05-01 13:39 | 49.45159 | 3.07285 | 37226 ft | 436 kts | 211° |
| 2026-05-01 13:39 | 49.40120 | 3.02078 | 37211 ft | 437 kts | 211° |
| 2026-05-01 13:40 | 49.35061 | 2.96888 | 37206 ft | 437 kts | 211° |
| 2026-05-01 13:40 | 49.29990 | 2.91745 | 37202 ft | 437 kts | 211° |
| 2026-05-01 13:41 | 49.24911 | 2.86625 | 37196 ft | 436 kts | 211° |
| 2026-05-01 13:41 | 49.19852 | 2.81538 | 37205 ft | 435 kts | 211° |
| 2026-05-01 13:42 | 49.14791 | 2.76460 | 37199 ft | 434 kts | 211° |
| 2026-05-01 13:42 | 49.09777 | 2.71441 | 37213 ft | 433 kts | 211° |
| 2026-05-01 13:43 | 49.04743 | 2.66413 | 37227 ft | 432 kts | 211° |
| 2026-05-01 13:43 | 48.99700 | 2.61386 | 37213 ft | 432 kts | 211° |
| 2026-05-01 13:44 | 48.94768 | 2.56488 | 37210 ft | 432 kts | 211° |
| 2026-05-01 13:44 | 48.89734 | 2.51499 | 37212 ft | 431 kts | 211° |
| 2026-05-01 13:45 | 48.84700 | 2.46518 | 37213 ft | 431 kts | 211° |
| 2026-05-01 13:45 | 48.79669 | 2.41550 | 37212 ft | 431 kts | 211° |
| 2026-05-01 13:46 | 48.74638 | 2.36593 | 37211 ft | 432 kts | 211° |
| 2026-05-01 13:46 | 48.69591 | 2.31631 | 37218 ft | 432 kts | 211° |
| 2026-05-01 13:47 | 48.64538 | 2.26672 | 37204 ft | 434 kts | 211° |
| 2026-05-01 13:47 | 48.59496 | 2.21745 | 37208 ft | 434 kts | 210° |
| 2026-05-01 13:48 | 48.53966 | 2.18121 | 37211 ft | 430 kts | 192° |
| 2026-05-01 13:48 | 48.48143 | 2.16304 | 37209 ft | 430 kts | 190° |
| 2026-05-01 13:49 | 48.42367 | 2.14516 | 37212 ft | 431 kts | 191° |
| 2026-05-01 13:49 | 48.36492 | 2.12633 | 37205 ft | 432 kts | 191° |
| 2026-05-01 13:50 | 48.30593 | 2.10766 | 37207 ft | 433 kts | 188° |
| 2026-05-01 13:50 | 48.24598 | 2.10639 | 37208 ft | 433 kts | 172° |
| 2026-05-01 13:51 | 48.18600 | 2.10979 | 37208 ft | 432 kts | 188° |
| 2026-05-01 13:51 | 48.12707 | 2.09152 | 37209 ft | 433 kts | 192° |
| 2026-05-01 13:52 | 48.06800 | 2.07245 | 37212 ft | 435 kts | 192° |
| 2026-05-01 13:52 | 48.00905 | 2.05386 | 37212 ft | 436 kts | 192° |
| 2026-05-01 13:53 | 47.94946 | 2.03534 | 37211 ft | 437 kts | 192° |
| 2026-05-01 13:53 | 47.86026 | 2.00781 | 37211 ft | 439 kts | 192° |
| 2026-05-01 13:54 | 47.80043 | 1.98939 | 37196 ft | 439 kts | 192° |
| 2026-05-01 13:54 | 47.74067 | 1.97104 | 37187 ft | 439 kts | 193° |
| 2026-05-01 13:55 | 47.68078 | 1.95268 | 37197 ft | 439 kts | 193° |
| 2026-05-01 13:55 | 47.62096 | 1.93439 | 37191 ft | 438 kts | 193° |
| 2026-05-01 13:56 | 47.56127 | 1.91618 | 37189 ft | 438 kts | 193° |
| 2026-05-01 13:56 | 47.50158 | 1.89800 | 37195 ft | 438 kts | 193° |
| 2026-05-01 13:57 | 47.45200 | 1.88295 | 37193 ft | 437 kts | 193° |
| 2026-05-01 13:57 | 47.38270 | 1.86195 | 37205 ft | 437 kts | 193° |
| 2026-05-01 13:58 | 47.32307 | 1.84394 | 37217 ft | 436 kts | 194° |
| 2026-05-01 13:58 | 47.26351 | 1.82597 | 37200 ft | 437 kts | 194° |
| 2026-05-01 13:59 | 47.20406 | 1.80808 | 37218 ft | 436 kts | 194° |
| 2026-05-01 13:59 | 47.14452 | 1.79021 | 37201 ft | 436 kts | 194° |
| 2026-05-01 14:00 | 47.08501 | 1.77238 | 37210 ft | 436 kts | 194° |
| 2026-05-01 14:00 | 47.02580 | 1.75469 | 37207 ft | 436 kts | 194° |
| 2026-05-01 14:01 | 46.96632 | 1.73695 | 37211 ft | 436 kts | 194° |
| 2026-05-01 14:01 | 46.90761 | 1.71949 | 37209 ft | 436 kts | 194° |
| 2026-05-01 14:02 | 46.84814 | 1.70184 | 37215 ft | 436 kts | 194° |
| 2026-05-01 14:02 | 46.78861 | 1.68421 | 37214 ft | 437 kts | 194° |
| 2026-05-01 14:03 | 46.72883 | 1.66654 | 37204 ft | 438 kts | 194° |
| 2026-05-01 14:03 | 46.66911 | 1.64894 | 37202 ft | 437 kts | 194° |
| 2026-05-01 14:04 | 46.60941 | 1.63138 | 37207 ft | 437 kts | 194° |
| 2026-05-01 14:04 | 46.55992 | 1.61686 | 37204 ft | 436 kts | 194° |
| 2026-05-01 14:05 | 46.49074 | 1.59659 | 37213 ft | 436 kts | 194° |
| 2026-05-01 14:05 | 46.43128 | 1.57922 | 37211 ft | 435 kts | 194° |
| 2026-05-01 14:06 | 46.37187 | 1.56190 | 37217 ft | 435 kts | 194° |
| 2026-05-01 14:06 | 46.31246 | 1.54462 | 37212 ft | 434 kts | 193° |
| 2026-05-01 14:07 | 46.25331 | 1.52746 | 37208 ft | 433 kts | 193° |
| 2026-05-01 14:08 | 46.16469 | 1.50180 | 37215 ft | 432 kts | 193° |
| 2026-05-01 14:08 | 46.10572 | 1.48478 | 37216 ft | 432 kts | 193° |
| 2026-05-01 14:09 | 46.04712 | 1.46790 | 37230 ft | 432 kts | 193° |
| 2026-05-01 14:09 | 45.98786 | 1.45087 | 37239 ft | 432 kts | 193° |
| 2026-05-01 14:10 | 45.92929 | 1.43407 | 37228 ft | 432 kts | 193° |
| 2026-05-01 14:10 | 45.87034 | 1.41720 | 37234 ft | 432 kts | 193° |
| 2026-05-01 14:11 | 45.81144 | 1.40039 | 37235 ft | 432 kts | 193° |
| 2026-05-01 14:11 | 45.72291 | 1.37517 | 37236 ft | 432 kts | 193° |
| 2026-05-01 14:12 | 45.66378 | 1.35838 | 37222 ft | 433 kts | 193° |
| 2026-05-01 14:12 | 45.60481 | 1.34167 | 37220 ft | 433 kts | 192° |
| 2026-05-01 14:13 | 45.55569 | 1.32778 | 37222 ft | 433 kts | 192° |
| 2026-05-01 14:13 | 45.49679 | 1.31115 | 37220 ft | 433 kts | 192° |
| 2026-05-01 14:14 | 45.43752 | 1.29445 | 37217 ft | 434 kts | 192° |
| 2026-05-01 14:14 | 45.37864 | 1.27790 | 37217 ft | 434 kts | 192° |
| 2026-05-01 14:15 | 45.31947 | 1.26131 | 37220 ft | 433 kts | 192° |
| 2026-05-01 14:15 | 45.26030 | 1.24475 | 37225 ft | 433 kts | 192° |
| 2026-05-01 14:16 | 45.20110 | 1.22822 | 37206 ft | 433 kts | 192° |
| 2026-05-01 14:16 | 45.14188 | 1.21171 | 37201 ft | 433 kts | 192° |
| 2026-05-01 14:17 | 45.08279 | 1.19528 | 37216 ft | 432 kts | 192° |
| 2026-05-01 14:17 | 45.02383 | 1.17892 | 37213 ft | 432 kts | 192° |
| 2026-05-01 14:18 | 44.96481 | 1.16257 | 37207 ft | 432 kts | 192° |
| 2026-05-01 14:18 | 44.91575 | 1.14901 | 37214 ft | 432 kts | 192° |
| 2026-05-01 14:19 | 44.84669 | 1.12996 | 37211 ft | 432 kts | 192° |
| 2026-05-01 14:19 | 44.78799 | 1.11381 | 37200 ft | 432 kts | 192° |
| 2026-05-01 14:20 | 44.69945 | 1.08950 | 37202 ft | 432 kts | 192° |
| 2026-05-01 14:21 | 44.64037 | 1.07333 | 37192 ft | 432 kts | 192° |
| 2026-05-01 14:21 | 44.58124 | 1.05717 | 37190 ft | 432 kts | 192° |
| 2026-05-01 14:22 | 44.49267 | 1.03304 | 37199 ft | 432 kts | 192° |
| 2026-05-01 14:22 | 44.43351 | 1.01696 | 37186 ft | 433 kts | 192° |
| 2026-05-01 14:23 | 44.37443 | 1.00093 | 37198 ft | 433 kts | 192° |
| 2026-05-01 14:23 | 44.31529 | 0.98492 | 37192 ft | 433 kts | 192° |
| 2026-05-01 14:24 | 44.25605 | 0.96892 | 37189 ft | 433 kts | 192° |
| 2026-05-01 14:24 | 44.19674 | 0.95293 | 37175 ft | 434 kts | 192° |
| 2026-05-01 14:25 | 44.13747 | 0.93698 | 37178 ft | 434 kts | 192° |
| 2026-05-01 14:25 | 44.07816 | 0.92106 | 37182 ft | 434 kts | 192° |
| 2026-05-01 14:26 | 43.98941 | 0.89729 | 37177 ft | 434 kts | 192° |
| 2026-05-01 14:27 | 43.92996 | 0.88141 | 37178 ft | 435 kts | 192° |
| 2026-05-01 14:27 | 43.87050 | 0.86556 | 37188 ft | 435 kts | 192° |
| 2026-05-01 14:28 | 43.78124 | 0.84182 | 37182 ft | 435 kts | 193° |
| 2026-05-01 14:28 | 43.72175 | 0.82604 | 37186 ft | 435 kts | 193° |
| 2026-05-01 14:29 | 43.66609 | 0.81131 | 37184 ft | 435 kts | 193° |
| 2026-05-01 14:30 | 43.54700 | 0.77988 | 37194 ft | 435 kts | 193° |
| 2026-05-01 14:31 | 43.45762 | 0.75637 | 37186 ft | 436 kts | 193° |
| 2026-05-01 14:31 | 43.39803 | 0.74074 | 37180 ft | 436 kts | 193° |
| 2026-05-01 14:32 | 43.33873 | 0.72521 | 37186 ft | 436 kts | 192° |
| 2026-05-01 14:32 | 43.27916 | 0.70965 | 37184 ft | 436 kts | 193° |
| 2026-05-01 14:33 | 43.21950 | 0.69408 | 37183 ft | 436 kts | 192° |
| 2026-05-01 14:33 | 43.15988 | 0.67856 | 37195 ft | 436 kts | 192° |
| 2026-05-01 14:34 | 43.10015 | 0.66305 | 37198 ft | 437 kts | 192° |
| 2026-05-01 14:34 | 43.04045 | 0.64757 | 37208 ft | 437 kts | 192° |
| 2026-05-01 14:35 | 42.98070 | 0.63210 | 37217 ft | 437 kts | 193° |
| 2026-05-01 14:35 | 42.92089 | 0.61665 | 37211 ft | 438 kts | 192° |
| 2026-05-01 14:36 | 42.86097 | 0.60120 | 37198 ft | 438 kts | 193° |
| 2026-05-01 14:36 | 42.80104 | 0.58577 | 37213 ft | 437 kts | 192° |
| 2026-05-01 14:37 | 42.74134 | 0.57043 | 37233 ft | 436 kts | 192° |
| 2026-05-01 14:37 | 42.68237 | 0.55184 | 37255 ft | 433 kts | 202° |
| 2026-05-01 14:38 | 42.62814 | 0.51773 | 37219 ft | 431 kts | 207° |
| 2026-05-01 14:38 | 42.57409 | 0.48238 | 37250 ft | 431 kts | 207° |
| 2026-05-01 14:39 | 42.51973 | 0.44734 | 37238 ft | 433 kts | 206° |
| 2026-05-01 14:39 | 42.46512 | 0.41250 | 37247 ft | 434 kts | 206° |
| 2026-05-01 14:40 | 42.41027 | 0.37764 | 37231 ft | 435 kts | 206° |
| 2026-05-01 14:40 | 42.35549 | 0.34288 | 37228 ft | 435 kts | 206° |
| 2026-05-01 14:41 | 42.30105 | 0.30839 | 37218 ft | 435 kts | 206° |
| 2026-05-01 14:41 | 42.24587 | 0.27350 | 37216 ft | 435 kts | 206° |
| 2026-05-01 14:42 | 42.19130 | 0.23905 | 37187 ft | 435 kts | 206° |
| 2026-05-01 14:42 | 42.13642 | 0.20445 | 37201 ft | 435 kts | 206° |
| 2026-05-01 14:43 | 42.08149 | 0.17007 | 37192 ft | 435 kts | 204° |
| 2026-05-01 14:43 | 42.02314 | 0.14979 | 37185 ft | 438 kts | 188° |
| 2026-05-01 14:44 | 41.96249 | 0.14130 | 37176 ft | 438 kts | 187° |
| 2026-05-01 14:44 | 41.87144 | 0.12856 | 37176 ft | 438 kts | 188° |
| 2026-05-01 14:45 | 41.78049 | 0.11506 | 37177 ft | 438 kts | 188° |
| 2026-05-01 14:46 | 41.71985 | 0.10599 | 37179 ft | 438 kts | 188° |
| 2026-05-01 14:46 | 41.62880 | 0.09241 | 37178 ft | 439 kts | 188° |
| 2026-05-01 14:47 | 41.56802 | 0.08337 | 37175 ft | 439 kts | 188° |
| 2026-05-01 14:48 | 41.47696 | 0.06987 | 37181 ft | 440 kts | 188° |
| 2026-05-01 14:48 | 41.38548 | 0.05633 | 37177 ft | 441 kts | 189° |
| 2026-05-01 14:49 | 41.26387 | 0.03837 | 37180 ft | 441 kts | 189° |
| 2026-05-01 14:50 | 41.14164 | 0.02044 | 37186 ft | 442 kts | 189° |
| 2026-05-01 14:51 | 41.05048 | 0.00711 | 37186 ft | 444 kts | 189° |
| 2026-05-01 14:52 | 40.95843 | -0.00622 | 37178 ft | 445 kts | 188° |
| 2026-05-01 14:53 | 40.86633 | -0.01953 | 37184 ft | 446 kts | 189° |
| 2026-05-01 14:53 | 40.80445 | -0.02848 | 37187 ft | 448 kts | 189° |
| 2026-05-01 14:54 | 40.74233 | -0.03745 | 37190 ft | 449 kts | 189° |
| 2026-05-01 14:54 | 40.68008 | -0.04642 | 37193 ft | 451 kts | 189° |
| 2026-05-01 14:55 | 40.61757 | -0.05542 | 37201 ft | 452 kts | 189° |
| 2026-05-01 14:55 | 40.55508 | -0.06506 | 37191 ft | 451 kts | 194° |
| 2026-05-01 14:56 | 40.50503 | -0.08305 | 37187 ft | 448 kts | 200° |
| 2026-05-01 14:56 | 40.44558 | -0.10780 | 37171 ft | 448 kts | 201° |
| 2026-05-01 14:57 | 40.38600 | -0.13186 | 37166 ft | 448 kts | 200° |
| 2026-05-01 14:57 | 40.29743 | -0.16666 | 37142 ft | 428 kts | 200° |
| 2026-05-01 14:58 | 40.26929 | -0.17767 | 37130 ft | 415 kts | 200° |
| 2026-05-01 14:58 | 40.24209 | -0.18835 | 37144 ft | 401 kts | 201° |
| 2026-05-01 14:58 | 40.21581 | -0.19869 | 37143 ft | 387 kts | 201° |
| 2026-05-01 14:58 | 40.19016 | -0.20883 | 37175 ft | 386 kts | 201° |
| 2026-05-01 14:59 | 40.13810 | -0.22952 | 37180 ft | 396 kts | 201° |
| 2026-05-01 14:59 | 40.11182 | -0.23991 | 36868 ft | 391 kts | 201° |
| 2026-05-01 14:59 | 40.08581 | -0.25016 | 36112 ft | 392 kts | 201° |
| 2026-05-01 15:00 | 40.03161 | -0.27161 | 33426 ft | 426 kts | 200° |
| 2026-05-01 15:00 | 40.00323 | -0.28278 | 32334 ft | 433 kts | 200° |
| 2026-05-01 15:00 | 39.97448 | -0.29391 | 31683 ft | 427 kts | 200° |
| 2026-05-01 15:01 | 39.94629 | -0.30470 | 31171 ft | 418 kts | 199° |
| 2026-05-01 15:01 | 39.91861 | -0.31531 | 30602 ft | 411 kts | 199° |
| 2026-05-01 15:01 | 39.89138 | -0.32577 | 29936 ft | 406 kts | 199° |
| 2026-05-01 15:01 | 39.86443 | -0.33620 | 29478 ft | 401 kts | 199° |
| 2026-05-01 15:02 | 39.83781 | -0.34656 | 29016 ft | 398 kts | 199° |
| 2026-05-01 15:02 | 39.82036 | -0.35335 | 28767 ft | 395 kts | 199° |
| 2026-05-01 15:02 | 39.78526 | -0.36702 | 28192 ft | 391 kts | 199° |
| 2026-05-01 15:02 | 39.75929 | -0.37712 | 27784 ft | 388 kts | 199° |
| 2026-05-01 15:03 | 39.73351 | -0.38715 | 27371 ft | 386 kts | 199° |
| 2026-05-01 15:03 | 39.70772 | -0.39717 | 26965 ft | 387 kts | 199° |
| 2026-05-01 15:03 | 39.68209 | -0.40712 | 26579 ft | 387 kts | 199° |
| 2026-05-01 15:03 | 39.65633 | -0.41711 | 26166 ft | 385 kts | 199° |
| 2026-05-01 15:04 | 39.63077 | -0.42701 | 25761 ft | 383 kts | 199° |
| 2026-05-01 15:04 | 39.60522 | -0.43690 | 25367 ft | 381 kts | 198° |
| 2026-05-01 15:04 | 39.57989 | -0.44670 | 24974 ft | 379 kts | 198° |
| 2026-05-01 15:04 | 39.55464 | -0.45647 | 24565 ft | 378 kts | 198° |
| 2026-05-01 15:05 | 39.52949 | -0.46619 | 24171 ft | 376 kts | 198° |
| 2026-05-01 15:05 | 39.50443 | -0.47585 | 23779 ft | 375 kts | 198° |
| 2026-05-01 15:05 | 39.47943 | -0.48544 | 23310 ft | 373 kts | 198° |
| 2026-05-01 15:05 | 39.45455 | -0.49456 | 22930 ft | 370 kts | 197° |
| 2026-05-01 15:06 | 39.42979 | -0.50338 | 22516 ft | 368 kts | 197° |
| 2026-05-01 15:06 | 39.40554 | -0.51195 | 22123 ft | 365 kts | 197° |
| 2026-05-01 15:06 | 39.38110 | -0.52059 | 21730 ft | 363 kts | 197° |
| 2026-05-01 15:06 | 39.35682 | -0.52919 | 21348 ft | 360 kts | 197° |
| 2026-05-01 15:07 | 39.33275 | -0.53774 | 20967 ft | 358 kts | 197° |
| 2026-05-01 15:07 | 39.30875 | -0.54628 | 20596 ft | 357 kts | 197° |
| 2026-05-01 15:07 | 39.28482 | -0.55481 | 20203 ft | 356 kts | 197° |
| 2026-05-01 15:07 | 39.26098 | -0.56330 | 19819 ft | 354 kts | 197° |
| 2026-05-01 15:08 | 39.23725 | -0.57175 | 19453 ft | 353 kts | 197° |
| 2026-05-01 15:08 | 39.21361 | -0.58016 | 19066 ft | 352 kts | 197° |
| 2026-05-01 15:08 | 39.19000 | -0.58856 | 18692 ft | 351 kts | 197° |
| 2026-05-01 15:08 | 39.16640 | -0.59695 | 18264 ft | 351 kts | 197° |
| 2026-05-01 15:09 | 39.14295 | -0.60528 | 17856 ft | 350 kts | 197° |
| 2026-05-01 15:09 | 39.11956 | -0.61358 | 17468 ft | 348 kts | 197° |
| 2026-05-01 15:09 | 39.09618 | -0.62187 | 17096 ft | 346 kts | 197° |
| 2026-05-01 15:09 | 39.07305 | -0.63007 | 16707 ft | 345 kts | 197° |
| 2026-05-01 15:10 | 39.04997 | -0.63825 | 16340 ft | 343 kts | 197° |
| 2026-05-01 15:10 | 39.00409 | -0.65448 | 15599 ft | 340 kts | 197° |
| 2026-05-01 15:10 | 38.98131 | -0.66253 | 15227 ft | 339 kts | 197° |
| 2026-05-01 15:11 | 38.95864 | -0.67054 | 14860 ft | 338 kts | 197° |
| 2026-05-01 15:11 | 38.91380 | -0.68637 | 14124 ft | 335 kts | 197° |
| 2026-05-01 15:11 | 38.89134 | -0.69429 | 13735 ft | 334 kts | 197° |
| 2026-05-01 15:12 | 38.86900 | -0.70216 | 13334 ft | 333 kts | 197° |
| 2026-05-01 15:12 | 38.82457 | -0.71780 | 12581 ft | 330 kts | 197° |
| 2026-05-01 15:12 | 38.80248 | -0.72557 | 12213 ft | 325 kts | 197° |
| 2026-05-01 15:13 | 38.73985 | -0.74755 | 11172 ft | 302 kts | 196° |
| 2026-05-01 15:14 | 38.69928 | -0.76180 | 10632 ft | 303 kts | 197° |
| 2026-05-01 15:14 | 38.67901 | -0.76891 | 10471 ft | 300 kts | 196° |
| 2026-05-01 15:14 | 38.63969 | -0.78267 | 10193 ft | 286 kts | 197° |
| 2026-05-01 15:15 | 38.60258 | -0.79565 | 9648 ft | 269 kts | 198° |
| 2026-05-01 15:15 | 38.56783 | -0.80779 | 9376 ft | 256 kts | 197° |
| 2026-05-01 15:16 | 38.53533 | -0.82118 | 9064 ft | 235 kts | 206° |
| 2026-05-01 15:16 | 38.51657 | -0.85074 | 8515 ft | 217 kts | 265° |
| 2026-05-01 15:17 | 38.52575 | -0.88460 | 8011 ft | 207 kts | 314° |
| 2026-05-01 15:18 | 38.56637 | -0.89378 | 7399 ft | 208 kts | 12° |
| 2026-05-01 15:18 | 38.58036 | -0.88904 | 7311 ft | 208 kts | 12° |
| 2026-05-01 15:19 | 38.62325 | -0.87424 | 7199 ft | 214 kts | 18° |
| 2026-05-01 15:19 | 38.63770 | -0.84476 | 7219 ft | 218 kts | 103° |
| 2026-05-01 15:19 | 38.62984 | -0.82863 | 7229 ft | 217 kts | 147° |
| 2026-05-01 15:20 | 38.60097 | -0.82392 | 7260 ft | 214 kts | 180° |
| 2026-05-01 15:20 | 38.58604 | -0.82211 | 7260 ft | 216 kts | 172° |
| 2026-05-01 15:20 | 38.57133 | -0.81769 | 7255 ft | 219 kts | 165° |
| 2026-05-01 15:21 | 38.55703 | -0.81101 | 7260 ft | 219 kts | 160° |
| 2026-05-01 15:21 | 38.54227 | -0.80844 | 7210 ft | 214 kts | 197° |
| 2026-05-01 15:21 | 38.53069 | -0.81879 | 7215 ft | 205 kts | 240° |
| 2026-05-01 15:21 | 38.52381 | -0.83435 | 7223 ft | 203 kts | 229° |
| 2026-05-01 15:22 | 38.50220 | -0.85788 | 7248 ft | 207 kts | 222° |
| 2026-05-01 15:22 | 38.49129 | -0.87014 | 7273 ft | 210 kts | 222° |
| 2026-05-01 15:22 | 38.48026 | -0.88251 | 7261 ft | 211 kts | 222° |
| 2026-05-01 15:23 | 38.46920 | -0.89483 | 7260 ft | 211 kts | 222° |
| 2026-05-01 15:23 | 38.45816 | -0.90708 | 7250 ft | 209 kts | 222° |
| 2026-05-01 15:23 | 38.44721 | -0.91921 | 7219 ft | 208 kts | 223° |
| 2026-05-01 15:23 | 38.43610 | -0.93151 | 6985 ft | 213 kts | 223° |
| 2026-05-01 15:24 | 38.42495 | -0.94384 | 6767 ft | 211 kts | 222° |
| 2026-05-01 15:24 | 38.41374 | -0.95476 | 6602 ft | 206 kts | 211° |
| 2026-05-01 15:24 | 38.40047 | -0.96180 | 6387 ft | 206 kts | 199° |
| 2026-05-01 15:24 | 38.38685 | -0.96675 | 6199 ft | 207 kts | 199° |
| 2026-05-01 15:25 | 38.37330 | -0.97292 | 5992 ft | 208 kts | 201° |
| 2026-05-01 15:25 | 38.35899 | -0.97676 | 5770 ft | 210 kts | 175° |
| 2026-05-01 15:25 | 38.34580 | -0.97028 | 5614 ft | 207 kts | 140° |
| 2026-05-01 15:25 | 38.33749 | -0.95568 | 5530 ft | 206 kts | 111° |
| 2026-05-01 15:26 | 38.33406 | -0.93779 | 5311 ft | 211 kts | 97° |
| 2026-05-01 15:26 | 38.33230 | -0.91903 | 5103 ft | 213 kts | 97° |
| 2026-05-01 15:26 | 38.33024 | -0.90038 | 4870 ft | 211 kts | 99° |
| 2026-05-01 15:26 | 38.32791 | -0.88252 | 4857 ft | 201 kts | 100° |
| 2026-05-01 15:27 | 38.32543 | -0.86464 | 4609 ft | 207 kts | 100° |
| 2026-05-01 15:27 | 38.32320 | -0.84886 | 4370 ft | 208 kts | 101° |
| 2026-05-01 15:27 | 38.32073 | -0.83149 | 4105 ft | 206 kts | 101° |
| 2026-05-01 15:28 | 38.31571 | -0.79615 | 3575 ft | 200 kts | 102° |
| 2026-05-01 15:28 | 38.31323 | -0.77880 | 3312 ft | 197 kts | 101° |
| 2026-05-01 15:28 | 38.31081 | -0.76178 | 3050 ft | 194 kts | 99° |
| 2026-05-01 15:29 | 38.30613 | -0.72856 | 2548 ft | 187 kts | 99° |
| 2026-05-01 15:29 | 38.30384 | -0.71234 | 2302 ft | 185 kts | 99° |
| 2026-05-01 15:29 | 38.29936 | -0.68060 | 1813 ft | 180 kts | 100° |
| 2026-05-01 15:30 | 38.29515 | -0.65073 | 1370 ft | 158 kts | 99° |
| 2026-05-01 15:31 | 38.28780 | -0.59935 | 641 ft | 145 kts | 101° |
| 2026-05-01 15:31 | 38.28450 | -0.57470 | 199 ft | 138 kts | 100° |
| 2026-05-01 15:32 | 38.28192 | -0.55633 | 95 ft | 51 kts | 100° |
| 2026-05-01 15:32 | 38.28122 | -0.55107 | 71 ft | 25 kts | 94° |
| 2026-05-01 15:33 | 38.28247 | -0.54770 | 63 ft | 11 kts | 283° |
| 2026-05-01 15:34 | 38.28293 | -0.55094 | 76 ft | 12 kts | 281° |